createdAt,value
2022-09-21T00:00:06.175Z,6
2022-09-21T00:05:04.083Z,6.1
2022-09-21T00:10:02.343Z,6
2022-09-21T00:15:00.470Z,6.1
2022-09-21T00:19:58.482Z,6.1
2022-09-21T00:24:56.637Z,6
2022-09-21T00:29:54.800Z,6
2022-09-21T00:34:52.877Z,5.9
2022-09-21T00:39:51.023Z,5.9
2022-09-21T00:44:52.820Z,6
2022-09-21T00:49:50.284Z,6
2022-09-21T00:54:48.621Z,6
2022-09-21T00:59:46.805Z,6
2022-09-21T01:04:45.053Z,6
2022-09-21T01:09:43.245Z,5.9
2022-09-21T01:14:41.098Z,5.9
2022-09-21T01:19:39.065Z,5.9
2022-09-21T01:24:37.249Z,5.8
2022-09-21T01:29:35.502Z,5.9
2022-09-21T01:34:33.691Z,5.9
2022-09-21T01:39:31.810Z,5.8
2022-09-21T01:44:30.022Z,5.9
2022-09-21T01:49:28.232Z,5.7
2022-09-21T01:54:26.556Z,5.7
2022-09-21T01:59:24.821Z,5.8
2022-09-21T02:04:23.158Z,5.9
2022-09-21T02:09:21.246Z,5.9
2022-09-21T02:14:19.428Z,5.8
2022-09-21T02:19:17.574Z,5.8
2022-09-21T02:24:15.931Z,5.8
2022-09-21T02:29:13.737Z,5.8
2022-09-21T02:34:15.919Z,5.8
2022-09-21T02:39:13.160Z,5.7
2022-09-21T02:39:29.852Z,5.8
2022-09-21T02:44:25.110Z,5.9
2022-09-21T02:49:23.153Z,5.8
2022-09-21T02:54:21.175Z,5.7
2022-09-21T02:59:19.328Z,5.7
2022-09-21T03:04:17.331Z,5.6
2022-09-21T03:09:15.729Z,5.5
2022-09-21T03:14:13.769Z,5.3
2022-09-21T03:19:11.797Z,5.3
2022-09-21T03:24:09.987Z,5.1
2022-09-21T03:29:08.081Z,4.9
2022-09-21T03:34:05.942Z,4.8
2022-09-21T03:39:04.083Z,4.7
2022-09-21T03:44:02.084Z,4.6
2022-09-21T03:49:00.355Z,4.5
2022-09-21T03:53:58.613Z,4.4
2022-09-21T03:58:56.640Z,4.2
2022-09-21T04:03:54.726Z,4.1
2022-09-21T04:08:53.910Z,4
2022-09-21T04:13:51.777Z,3.9
2022-09-21T04:18:49.749Z,3.9
2022-09-21T04:23:47.765Z,3.9
2022-09-21T04:28:46.737Z,4
2022-09-21T04:33:45.094Z,4.2
2022-09-21T04:38:43.593Z,4.6
2022-09-21T04:43:42.144Z,4.9
2022-09-21T04:48:40.462Z,5
2022-09-21T04:53:38.736Z,5.2
2022-09-21T04:58:37.039Z,5.4
2022-09-21T05:03:35.376Z,5.8
2022-09-21T05:08:34.010Z,6.3
2022-09-21T05:13:34.362Z,9.1
2022-09-21T05:18:35.118Z,10.9
2022-09-21T05:23:36.454Z,14.2
2022-09-21T05:28:39.984Z,16.4
2022-09-21T05:33:36.756Z,18.7
2022-09-21T05:38:36.775Z,20.6
2022-09-21T05:43:36.350Z,22.1
2022-09-21T05:48:35.938Z,23.9
2022-09-21T05:53:35.500Z,25.6
2022-09-21T05:58:35.940Z,26.7
2022-09-21T06:03:30.429Z,22.3
2022-09-21T06:08:24.989Z,18.9
2022-09-21T06:13:21.851Z,20.2
2022-09-21T06:18:24.952Z,25.5
2022-09-21T06:23:23.200Z,23.9
2022-09-21T06:28:19.708Z,23.2
2022-09-21T06:33:21.800Z,27.7
2022-09-21T06:38:22.887Z,30.7
2022-09-21T06:43:23.414Z,32.4
2022-09-21T06:48:22.858Z,33.2
2022-09-21T06:53:19.183Z,30.6
2022-09-21T06:58:15.172Z,28.8
2022-09-21T07:03:12.618Z,28.1
2022-09-21T07:13:12.453Z,31.9
2022-09-21T07:18:09.246Z,29.7
2022-09-21T07:23:06.320Z,28
2022-09-21T07:28:07.705Z,30.3
2022-09-21T07:33:08.651Z,33.3
2022-09-21T07:38:06.866Z,31.9
2022-09-21T07:43:05.505Z,34.5
2022-09-21T07:48:03.316Z,32.2
2022-09-21T07:53:01.002Z,32.6
2022-09-21T07:58:01.327Z,34.2
2022-09-21T08:02:57.949Z,34.6
2022-09-21T08:07:58.585Z,37.3
2022-09-21T08:12:58.492Z,38.9
2022-09-21T08:17:57.134Z,37.8
2022-09-21T08:22:49.451Z,30.1
2022-09-21T08:27:44.075Z,28.3
2022-09-21T08:32:50.851Z,28.3
2022-09-21T08:37:41.605Z,31
2022-09-21T08:42:42.318Z,32.5
2022-09-21T08:47:39.730Z,32.7
2022-09-21T08:52:40.845Z,36.3
2022-09-21T08:57:40.843Z,37.7
2022-09-21T09:02:39.860Z,38.4
2022-09-21T09:07:35.838Z,34.2
2022-09-21T09:12:30.971Z,32.7
2022-09-21T09:17:27.453Z,31.6
2022-09-21T09:22:23.935Z,30.3
2022-09-21T09:27:20.791Z,29
2022-09-21T09:32:18.409Z,28.3
2022-09-21T09:37:15.653Z,27.3
2022-09-21T09:42:13.029Z,26.6
2022-09-21T09:47:11.169Z,26.4
2022-09-21T09:52:09.113Z,26.2
2022-09-21T09:57:07.455Z,27.1
2022-09-21T10:02:08.980Z,31.1
2022-09-21T10:07:11.326Z,36.5
2022-09-21T10:12:11.103Z,34.7
2022-09-21T10:17:06.376Z,33.5
2022-09-21T10:22:05.989Z,32.7
2022-09-21T10:27:01.097Z,29.1
2022-09-21T10:31:56.803Z,26.7
2022-09-21T10:36:53.509Z,26.5
2022-09-21T10:41:56.607Z,31.1
2022-09-21T10:46:54.105Z,30.6
2022-09-21T10:51:54.570Z,34.8
2022-09-21T10:56:52.744Z,37.1
2022-09-21T11:01:54.355Z,39.8
2022-09-21T11:06:48.220Z,32
2022-09-21T11:11:53.114Z,38.7
2022-09-21T11:16:51.684Z,35.2
2022-09-21T11:21:44.739Z,30.2
2022-09-21T11:26:44.500Z,31.4
2022-09-21T11:31:40.199Z,29
2022-09-21T11:36:37.012Z,27.6
2022-09-21T11:41:34.461Z,27
2022-09-21T11:46:31.318Z,25.8
2022-09-21T11:51:28.552Z,25.2
2022-09-21T11:56:27.901Z,29.7
2022-09-21T12:01:26.201Z,27.3
2022-09-21T12:06:22.615Z,25.9
2022-09-21T12:11:19.731Z,25.2
2022-09-21T12:16:16.567Z,23.2
2022-09-21T12:21:13.481Z,22.3
2022-09-21T12:26:11.169Z,22.3
2022-09-21T12:31:09.121Z,22.2
2022-09-21T12:36:07.473Z,23.6
2022-09-21T12:41:07.850Z,27.3
2022-09-21T12:46:08.188Z,27.8
2022-09-21T12:51:05.962Z,24.2
2022-09-21T12:56:00.341Z,23
2022-09-21T13:00:57.477Z,23
2022-09-21T13:05:56.106Z,23.3
2022-09-21T13:10:54.858Z,21.7
2022-09-21T13:15:50.177Z,19.6
2022-09-21T13:20:47.173Z,18.6
2022-09-21T13:25:45.141Z,18.7
2022-09-21T13:30:43.467Z,18.9
2022-09-21T13:35:41.371Z,18.5
2022-09-21T13:40:39.259Z,17.9
2022-09-21T13:45:36.667Z,17.1
2022-09-21T13:50:34.062Z,16.3
2022-09-21T13:55:31.749Z,15.9
2022-09-21T14:00:30.816Z,15.3
2022-09-21T14:05:27.758Z,15.8
2022-09-21T14:10:26.814Z,17
2022-09-21T14:15:25.322Z,17.1
2022-09-21T14:20:26.845Z,16.9
2022-09-21T14:25:21.540Z,16.6
2022-09-21T14:30:19.537Z,16.6
2022-09-21T14:35:17.808Z,16.9
2022-09-21T14:40:15.975Z,16.8
2022-09-21T14:45:13.922Z,17.1
2022-09-21T14:50:15.314Z,17.2
2022-09-21T14:55:10.382Z,16.7
2022-09-21T15:00:07.683Z,15.5
2022-09-21T15:05:04.512Z,14.2
2022-09-21T15:10:01.848Z,13.3
2022-09-21T15:14:59.068Z,12.3
2022-09-21T15:19:56.858Z,12
2022-09-21T15:24:54.609Z,11.7
2022-09-21T15:29:52.298Z,11.3
2022-09-21T15:34:50.168Z,11.1
2022-09-21T15:39:48.055Z,10.9
2022-09-21T15:44:46.037Z,10.8
2022-09-21T15:49:43.836Z,10.5
2022-09-21T15:54:41.813Z,10.3
2022-09-21T15:59:39.762Z,9.9
2022-09-21T16:04:37.739Z,9.8
2022-09-21T16:09:35.479Z,9.5
2022-09-21T16:14:33.496Z,9.1
2022-09-21T16:19:31.326Z,9.1
2022-09-21T16:24:29.445Z,8.9
2022-09-21T16:29:27.367Z,8.8
2022-09-21T16:34:25.560Z,8.6
2022-09-21T16:39:23.378Z,8.3
2022-09-21T16:44:21.178Z,7.9
2022-09-21T16:49:19.015Z,7.8
2022-09-21T16:54:16.814Z,7.7
2022-09-21T16:59:14.930Z,7.7
2022-09-21T17:04:13.229Z,7.6
2022-09-21T17:09:11.234Z,7.5
2022-09-21T17:14:09.272Z,7.2
2022-09-21T17:19:07.274Z,6.9
2022-09-21T17:24:06.397Z,6.8
2022-09-21T17:29:04.659Z,6.6
2022-09-21T17:34:02.601Z,6.4
2022-09-21T17:39:00.711Z,6.3
2022-09-21T17:43:58.721Z,6.1
2022-09-21T17:48:57.096Z,6
2022-09-21T17:53:55.167Z,5.9
2022-09-21T17:58:53.313Z,5.7
2022-09-21T18:03:51.471Z,5.6
2022-09-21T18:08:49.808Z,5.7
2022-09-21T18:13:47.997Z,5.6
2022-09-21T18:18:46.152Z,5.6
2022-09-21T18:23:44.436Z,5.6
2022-09-21T18:28:44.594Z,5.4
2022-09-21T18:33:42.375Z,5.3
2022-09-21T18:38:40.511Z,5.1
2022-09-21T18:43:38.731Z,5
2022-09-21T18:48:36.899Z,5
2022-09-21T18:53:35.001Z,5
2022-09-21T18:58:33.131Z,4.9
2022-09-21T19:03:31.344Z,4.8
2022-09-21T19:08:29.406Z,4.8
2022-09-21T19:13:27.619Z,4.8
2022-09-21T19:18:25.771Z,4.7
2022-09-21T19:23:23.911Z,4.9
2022-09-21T19:28:22.106Z,5.2
2022-09-21T19:33:38.800Z,5.5
2022-09-21T19:38:19.062Z,5.8
2022-09-21T19:43:17.364Z,6.1
2022-09-21T19:48:15.898Z,6.1
2022-09-21T19:53:14.279Z,6.1
2022-09-21T19:58:12.575Z,6
2022-09-21T20:03:10.558Z,5.9
2022-09-21T20:08:08.588Z,5.9
2022-09-21T20:13:06.838Z,5.7
2022-09-21T20:18:04.903Z,5.8
2022-09-21T20:23:02.834Z,5.6
2022-09-21T20:28:00.819Z,5.6
2022-09-21T20:32:58.861Z,5.7
2022-09-21T20:38:01.403Z,5.7
2022-09-21T20:42:54.997Z,5.9
2022-09-21T20:47:53.304Z,6
2022-09-21T20:52:51.473Z,6.2
2022-09-21T20:57:49.492Z,6.2
2022-09-21T21:02:47.586Z,6.1
2022-09-21T21:07:45.756Z,5.8
2022-09-21T21:12:43.586Z,5.6
2022-09-21T21:17:41.307Z,5.3
2022-09-21T21:22:39.176Z,5
2022-09-21T21:27:37.262Z,4.9
2022-09-21T21:32:35.067Z,4.7
2022-09-21T21:37:32.970Z,4.6
2022-09-21T21:42:30.924Z,4.5
2022-09-21T21:47:44.336Z,4.4
2022-09-21T21:52:26.949Z,4.2
2022-09-21T21:57:24.979Z,4.1
2022-09-21T22:02:23.066Z,4.1
2022-09-21T22:07:21.021Z,4
2022-09-21T22:12:19.098Z,3.9
2022-09-21T22:17:17.180Z,3.8
2022-09-21T22:22:15.156Z,3.8
2022-09-21T22:27:13.275Z,3.8
2022-09-21T22:32:11.227Z,3.8
2022-09-21T22:37:09.428Z,3.9
2022-09-21T22:42:07.460Z,3.9
2022-09-21T22:47:05.537Z,3.9
2022-09-21T22:52:03.527Z,3.8
2022-09-21T22:57:01.581Z,3.7
2022-09-21T23:01:59.561Z,3.7
2022-09-21T23:06:57.381Z,3.7
2022-09-21T23:11:55.478Z,3.5
2022-09-21T23:16:53.398Z,3.5
2022-09-21T23:21:51.396Z,3.3
2022-09-21T23:26:49.419Z,3.3
2022-09-21T23:31:47.619Z,3.2
2022-09-21T23:36:45.697Z,3.1
2022-09-21T23:41:43.659Z,3.1
2022-09-21T23:46:41.847Z,3
2022-09-21T23:51:39.732Z,3
2022-09-21T23:56:37.755Z,2.9
